createdAt,value
2018-03-27T09:53:05.178Z,14.03
2018-03-27T09:55:32.732Z,15.23
2018-03-27T09:58:00.349Z,14.30
2018-03-27T10:00:33.653Z,14.03
2018-03-27T10:03:01.189Z,13.40
2018-03-27T10:05:28.758Z,26.43
2018-03-27T10:07:56.316Z,12.97
2018-03-27T10:10:23.880Z,13.97
2018-03-27T10:12:51.445Z,14.20
2018-03-27T10:15:19.005Z,14.97
2018-03-27T10:17:46.565Z,13.53
2018-03-27T10:20:14.169Z,13.47
2018-03-27T10:22:41.736Z,13.53
2018-03-27T10:25:09.295Z,14.03
2018-03-27T10:27:36.854Z,14.87
2018-03-27T10:30:04.417Z,15.27
2018-03-27T10:32:31.979Z,15.57
2018-03-27T10:35:00.337Z,14.10
2018-03-27T10:37:27.964Z,14.00
2018-03-27T10:39:55.529Z,13.30
2018-03-27T10:42:24.006Z,13.93
2018-03-27T10:44:51.605Z,17.67
2018-03-27T10:47:19.159Z,18.23
2018-03-27T10:49:46.742Z,17.57
2018-03-27T10:52:15.076Z,19.53
2018-03-27T10:54:43.046Z,20.07
2018-03-27T10:57:10.613Z,17.93
2018-03-27T10:59:38.213Z,21.20
2018-03-27T11:02:06.672Z,19.67
2018-03-27T11:04:38.574Z,20.40
2018-03-27T11:07:10.139Z,19.97
2018-03-27T11:09:37.758Z,21.07
2018-03-27T11:12:05.342Z,23.30
2018-03-27T11:14:35.508Z,20.37
2018-03-27T11:17:03.697Z,23.83
2018-03-27T11:19:31.396Z,19.90
2018-03-27T11:22:04.222Z,20.27
2018-03-27T11:24:34.184Z,18.10
2018-03-27T11:27:05.547Z,19.07
2018-03-27T11:29:33.699Z,20.57
2018-03-27T11:32:01.331Z,20.07
2018-03-27T11:34:30.065Z,20.87
2018-03-27T11:36:59.600Z,20.83
2018-03-27T11:39:29.178Z,17.00
2018-03-27T11:41:58.034Z,19.70
2018-03-27T11:44:27.147Z,19.90
2018-03-27T11:46:54.809Z,18.23
2018-03-27T11:49:23.978Z,16.27
2018-03-27T11:51:52.861Z,14.90
2018-03-27T11:54:23.399Z,16.43
2018-03-27T11:56:50.986Z,15.40
2018-03-27T11:59:20.384Z,17.63
2018-03-27T12:01:52.779Z,16.83
2018-03-27T12:04:20.484Z,14.10
2018-03-27T12:06:50.651Z,16.83
2018-03-27T12:09:23.500Z,16.77
2018-03-27T12:11:51.100Z,13.83
2018-03-27T12:14:19.421Z,16.33
2018-03-27T12:16:47.020Z,16.20
2018-03-27T12:19:15.539Z,14.37
2018-03-27T12:21:43.104Z,13.23
2018-03-27T12:24:10.711Z,15.53
2018-03-27T12:26:38.344Z,14.33
2018-03-27T12:29:05.940Z,16.63
2018-03-27T12:31:34.279Z,17.00
2018-03-27T12:34:01.856Z,15.47
2018-03-27T12:36:30.234Z,14.07
2018-03-27T12:38:57.823Z,14.33
2018-03-27T12:41:25.419Z,15.40
2018-03-27T12:43:52.994Z,17.27
2018-03-27T12:46:22.162Z,11.47
2018-03-27T12:48:50.547Z,12.37
2018-03-27T12:51:18.892Z,13.03
2018-03-27T12:53:46.461Z,13.07
2018-03-27T12:56:14.219Z,11.23
2018-03-27T12:58:41.796Z,11.93
2018-03-27T13:01:10.300Z,17.13
2018-03-27T13:03:37.923Z,12.13
2018-03-27T13:06:05.473Z,12.57
2018-03-27T13:08:33.063Z,15.50
2018-03-27T13:11:01.434Z,13.87
2018-03-27T13:13:29.057Z,10.97
2018-03-27T13:15:56.776Z,14.47
2018-03-27T13:18:24.424Z,10.20
2018-03-27T13:20:54.003Z,12.03
2018-03-27T13:23:23.751Z,13.53
2018-03-27T13:25:51.340Z,11.40
2018-03-27T13:28:19.214Z,15.03
2018-03-27T13:30:46.911Z,14.60
2018-03-27T13:33:14.478Z,12.00
2018-03-27T13:35:42.221Z,10.67
2018-03-27T13:38:10.672Z,11.77
2018-03-27T13:40:38.323Z,12.03
2018-03-27T13:43:05.948Z,10.03
2018-03-27T13:45:33.544Z,13.00
2018-03-27T13:48:01.184Z,11.40
2018-03-27T13:50:28.838Z,10.70
2018-03-27T13:52:57.162Z,13.60
2018-03-27T13:55:24.729Z,14.57
2018-03-27T13:57:52.588Z,13.83
2018-03-27T14:00:20.274Z,14.17
2018-03-27T14:02:47.838Z,13.63
2018-03-27T14:05:15.424Z,14.37
2018-03-27T14:07:45.447Z,10.70
2018-03-27T14:10:13.783Z,19.03
2018-03-27T14:12:41.364Z,12.40
2018-03-27T14:15:09.132Z,13.70
2018-03-27T14:17:36.732Z,11.67
2018-03-27T14:20:04.339Z,11.00
2018-03-27T14:22:31.947Z,10.60
2018-03-27T14:25:00.325Z,9.10
2018-03-27T14:27:28.111Z,11.20
2018-03-27T14:29:55.800Z,11.40
2018-03-27T14:32:23.488Z,12.03
2018-03-27T14:34:52.014Z,12.00
2018-03-27T14:37:20.027Z,11.97
2018-03-27T14:39:48.069Z,14.13
2018-03-27T14:42:15.926Z,11.07
2018-03-27T14:44:43.555Z,11.33
2018-03-27T14:47:11.352Z,10.57
2018-03-27T14:49:38.990Z,11.57
2018-03-27T14:52:07.375Z,11.23
2018-03-27T14:54:34.976Z,12.77
2018-03-27T14:57:02.541Z,12.27
2018-03-27T14:59:30.121Z,13.07
2018-03-27T15:01:57.693Z,11.03
2018-03-27T15:04:26.076Z,10.90
2018-03-27T15:06:54.411Z,12.13
2018-03-27T15:09:21.965Z,15.63
2018-03-27T15:11:49.533Z,10.30
2018-03-27T15:14:17.098Z,13.47
2018-03-27T15:16:44.701Z,13.77
2018-03-27T15:19:13.028Z,13.83
2018-03-27T15:21:40.611Z,14.10
2018-03-27T15:24:08.237Z,13.63
2018-03-27T15:26:35.831Z,14.70
2018-03-27T15:29:03.376Z,11.30
2018-03-27T15:31:30.937Z,13.23
2018-03-27T15:33:58.500Z,12.43
2018-03-27T15:36:26.059Z,12.90
2018-03-27T15:38:53.611Z,13.03
2018-03-27T15:41:21.168Z,11.90
2018-03-27T15:43:48.774Z,13.97
2018-03-27T15:46:16.345Z,14.17
2018-03-27T15:48:44.660Z,12.67
2018-03-27T15:51:12.324Z,15.03
2018-03-27T15:53:40.489Z,11.57
2018-03-27T15:56:08.034Z,13.30
2018-03-27T15:58:35.637Z,11.37
2018-03-27T16:01:03.828Z,16.67
2018-03-27T16:03:33.456Z,13.33
2018-03-27T16:06:01.045Z,12.67
2018-03-27T16:08:28.631Z,13.07
2018-03-27T16:10:56.323Z,14.73
2018-03-27T16:13:24.639Z,14.73
2018-03-27T16:15:52.847Z,13.57
2018-03-27T16:18:20.401Z,13.43
2018-03-27T16:20:47.988Z,19.23
2018-03-27T16:23:15.571Z,17.07
2018-03-27T16:25:43.910Z,19.30
2018-03-27T16:28:11.469Z,14.87
2018-03-27T16:30:40.029Z,16.50
2018-03-27T16:33:07.653Z,17.03
2018-03-27T16:35:35.252Z,15.40
2018-03-27T16:38:03.035Z,16.53
2018-03-27T16:40:30.707Z,16.30
2018-03-27T16:42:58.336Z,16.90
2018-03-27T16:45:26.091Z,19.13
2018-03-27T16:47:53.758Z,16.97
2018-03-27T16:50:23.180Z,19.87
2018-03-27T16:52:50.739Z,16.97
2018-03-27T16:55:18.315Z,15.63
2018-03-27T16:57:45.861Z,16.90
2018-03-27T17:00:13.404Z,14.47
2018-03-27T17:02:41.138Z,17.23
2018-03-27T17:05:09.476Z,15.83
2018-03-27T17:07:37.092Z,15.73
2018-03-27T17:10:04.662Z,14.37
2018-03-27T17:12:32.217Z,14.80
2018-03-27T17:15:06.734Z,12.67
2018-03-27T17:17:34.311Z,14.37
2018-03-27T17:20:01.865Z,16.23
2018-03-27T17:22:29.453Z,17.20
2018-03-27T17:24:57.058Z,16.63
2018-03-27T17:27:24.621Z,19.60
2018-03-27T17:29:52.960Z,16.50
2018-03-27T17:32:20.532Z,15.37
2018-03-27T17:34:48.122Z,19.37
2018-03-27T17:37:15.687Z,22.33
2018-03-27T17:39:43.244Z,14.70
2018-03-27T17:42:10.808Z,17.10
2018-03-27T17:44:38.380Z,15.73
2018-03-27T17:47:05.983Z,19.40
2018-03-27T17:49:33.532Z,15.93
2018-03-27T17:52:01.851Z,15.80
2018-03-27T17:54:30.172Z,15.70
2018-03-27T17:56:57.815Z,17.80
2018-03-27T17:59:25.387Z,15.97
2018-03-27T18:01:52.932Z,19.50
2018-03-27T18:04:21.065Z,16.67
2018-03-27T18:06:48.649Z,19.77
2018-03-27T18:09:16.233Z,21.10
2018-03-27T18:11:43.822Z,19.20
2018-03-27T18:14:12.133Z,20.00
2018-03-27T18:16:40.453Z,18.77
2018-03-27T18:19:08.013Z,20.50
2018-03-27T18:21:35.643Z,19.37
2018-03-27T18:24:04.005Z,19.20
2018-03-27T18:26:32.933Z,19.80
2018-03-27T18:29:00.610Z,21.10
2018-03-27T18:31:28.219Z,18.33
2018-03-27T18:33:55.777Z,21.93
2018-03-27T18:36:24.106Z,20.33
2018-03-27T18:38:51.687Z,20.43
2018-03-27T18:41:19.252Z,22.80
2018-03-27T18:43:46.824Z,19.10
2018-03-27T18:46:14.397Z,20.37
2018-03-27T18:48:42.727Z,23.70
2018-03-27T18:51:10.334Z,23.53
2018-03-27T18:53:38.664Z,23.03
2018-03-27T18:56:06.201Z,22.97
2018-03-27T18:58:33.760Z,25.87
2018-03-27T19:01:01.316Z,23.53
2018-03-27T19:03:28.904Z,21.33
2018-03-27T19:05:57.300Z,26.80
2018-03-27T19:08:24.838Z,26.30
2018-03-27T19:10:52.495Z,24.00
2018-03-27T19:13:20.120Z,22.83
2018-03-27T19:15:48.520Z,23.37
2018-03-27T19:18:16.217Z,24.83
2018-03-27T19:20:43.800Z,24.63
2018-03-27T19:23:11.404Z,23.87
2018-03-27T19:25:39.058Z,23.40
2018-03-27T19:28:06.762Z,23.60
2018-03-27T19:30:34.317Z,20.60
2018-03-27T19:33:01.942Z,24.93
2018-03-27T19:35:30.354Z,23.37
2018-03-27T19:37:59.303Z,23.77
2018-03-27T19:40:27.694Z,29.37
2018-03-27T19:42:56.242Z,24.30
2018-03-27T19:45:24.723Z,24.93
2018-03-27T19:47:53.075Z,23.97
2018-03-27T19:50:21.422Z,25.37
2018-03-27T19:52:49.102Z,23.37
2018-03-27T19:55:16.928Z,21.37
2018-03-27T19:57:45.339Z,24.80
2018-03-27T20:00:12.984Z,22.30
2018-03-27T20:02:52.357Z,21.83
2018-03-27T20:05:25.325Z,26.53
2018-03-27T20:07:53.122Z,27.33
2018-03-27T20:10:20.767Z,26.23
2018-03-27T20:12:48.427Z,24.10
2018-03-27T20:15:16.078Z,23.40
2018-03-27T20:17:52.366Z,23.50
2018-03-27T20:20:19.963Z,28.07
2018-03-27T20:22:47.548Z,24.57
2018-03-27T20:25:15.206Z,26.90
2018-03-27T20:27:43.688Z,24.47
2018-03-27T20:30:11.386Z,27.87
2018-03-27T20:32:39.060Z,25.57
2018-03-27T20:35:07.709Z,22.20
2018-03-27T20:37:35.450Z,27.10
2018-03-27T20:40:03.790Z,24.13
2018-03-27T20:42:31.470Z,24.73
2018-03-27T20:44:59.243Z,26.97
2018-03-27T20:47:28.360Z,26.47
2018-03-27T20:49:56.695Z,25.33
2018-03-27T20:52:24.426Z,25.10
2018-03-27T20:54:52.337Z,28.47
2018-03-27T20:57:19.917Z,26.43
2018-03-27T20:59:47.507Z,27.80
2018-03-27T21:02:15.175Z,26.73
2018-03-27T21:04:42.740Z,26.70
2018-03-27T21:07:10.289Z,26.63
2018-03-27T21:09:37.893Z,26.50
2018-03-27T21:12:05.521Z,25.93
2018-03-27T21:14:33.082Z,27.23
2018-03-27T21:17:00.629Z,28.57
2018-03-27T21:19:28.183Z,22.43
2018-03-27T21:21:55.729Z,27.60
2018-03-27T21:24:24.053Z,28.90
2018-03-27T21:26:51.608Z,27.47
2018-03-27T21:29:19.214Z,27.70
2018-03-27T21:31:47.533Z,26.53
2018-03-27T21:34:15.136Z,25.20
2018-03-27T21:36:43.501Z,25.90
2018-03-27T21:39:12.056Z,25.37
2018-03-27T21:41:39.619Z,23.67
2018-03-27T21:44:07.173Z,22.57
2018-03-27T21:46:35.655Z,29.27
2018-03-27T21:49:03.205Z,26.93
2018-03-27T21:51:30.872Z,27.90
2018-03-27T21:53:58.428Z,23.60
2018-03-27T21:56:26.097Z,28.73
2018-03-27T21:58:54.401Z,25.73
2018-03-27T22:01:27.718Z,26.37
2018-03-27T22:03:55.290Z,22.07
2018-03-27T22:06:25.544Z,21.87
2018-03-27T22:08:53.126Z,23.87
2018-03-27T22:11:20.684Z,23.67
2018-03-27T22:13:48.647Z,22.30
2018-03-27T22:16:16.219Z,19.87
2018-03-27T22:18:44.604Z,22.33
2018-03-27T22:21:12.155Z,24.07
2018-03-27T22:23:39.714Z,22.47
2018-03-27T22:26:07.275Z,22.87
2018-03-27T22:28:34.835Z,21.40
2018-03-27T22:31:02.375Z,23.90
2018-03-27T22:33:30.000Z,20.27
2018-03-27T22:35:58.325Z,21.43
2018-03-27T22:38:25.867Z,19.00
2018-03-27T22:40:53.435Z,20.53
2018-03-27T22:43:20.982Z,18.23
2018-03-27T22:45:48.531Z,18.20
2018-03-27T22:48:16.064Z,18.80
2018-03-27T22:50:43.673Z,20.43
2018-03-27T22:53:11.228Z,16.37
2018-03-27T22:55:38.765Z,19.03
2018-03-27T22:58:07.106Z,17.17
